Time;durP1;ratioP1;P1;durP2;ratioP2;P2;SDS_P1;SDS_P2;PMS_P1;PMS_P2;Temp;Humidity;BMP_temperature;BMP_pressure;BME280_temperature;BME280_humidity;BME280_pressure;Samples;Min_cycle;Max_cycle;Signal;HPM_P1;HPM_P2
2022/08/18 00:00:29;;;;;;;;;15.33;15.33;;;;;21.89;78.31;100822.56;5079325;28;45429;-80
2022/08/18 00:03:02;;;;;;;;;18.67;18.67;;;;;21.81;78.78;100802.16;5079823;28;45508;-80
2022/08/18 00:05:27;;;;;;;;;13.00;13.00;;;;;21.81;78.28;100804.88;5079160;28;45540;-81
2022/08/18 00:07:53;;;;;;;;;14.67;14.67;;;;;21.81;78.16;100806.75;5079308;28;45381;-80
2022/08/18 00:10:18;;;;;;;;;17.00;17.00;;;;;21.74;78.49;100798.78;5079346;28;45554;-80
2022/08/18 00:12:44;;;;;;;;;17.67;17.33;;;;;21.73;79.30;100805.25;5079135;28;45404;-80
2022/08/18 00:15:13;;;;;;;;;16.67;15.67;;;;;21.70;78.93;100814.69;5079028;28;45322;-80
2022/08/18 00:17:39;;;;;;;;;16.00;16.00;;;;;21.66;78.51;100805.44;5090538;27;45372;-80
2022/08/18 00:20:07;;;;;;;;;17.00;16.67;;;;;21.66;79.05;100812.72;5079255;28;45286;-79
2022/08/18 00:22:34;;;;;;;;;15.33;15.33;;;;;21.57;78.69;100805.03;5079180;28;45306;-80
2022/08/18 00:24:59;;;;;;;;;18.00;17.67;;;;;21.60;78.49;100817.22;5079120;28;45292;-80
2022/08/18 00:27:29;;;;;;;;;15.00;14.33;;;;;21.54;78.53;100813.63;5079017;28;45342;-80
2022/08/18 00:29:59;;;;;;;;;14.67;14.67;;;;;21.49;78.44;100808.13;5079020;28;45270;-80
2022/08/18 00:32:32;;;;;;;;;15.67;15.00;;;;;21.50;79.18;100817.06;5079295;28;45251;-80
2022/08/18 00:35:04;;;;;;;;;15.00;15.00;;;;;;;;5078735;28;45336;-80
2022/08/18 00:37:29;;;;;;;;;18.00;17.33;;;;;21.43;79.85;100792.91;5078897;28;45345;-80
2022/08/18 00:39:54;;;;;;;;;13.33;13.33;;;;;21.43;79.25;100799.13;5078795;28;45333;-80
2022/08/18 00:42:24;;;;;;;;;19.67;19.33;;;;;21.43;79.51;100811.84;5079253;28;45245;-80
2022/08/18 00:44:50;;;;;;;;;16.67;16.33;;;;;21.38;80.06;100809.88;5078537;28;45339;-80
2022/08/18 00:47:16;;;;;;;;;18.00;18.00;;;;;21.37;79.59;100818.22;5078880;28;45300;-80
2022/08/18 00:49:44;;;;;;;;;18.67;18.67;;;;;21.38;80.28;100811.75;5078769;28;45236;-80
2022/08/18 00:52:15;;;;;;;;;18.00;17.67;;;;;21.37;79.59;100810.91;5079013;28;45296;-80
2022/08/18 00:54:44;;;;;;;;;19.00;19.00;;;;;21.37;79.45;100807.41;5078374;28;45334;-80
2022/08/18 00:57:09;;;;;;;;;18.67;18.67;;;;;21.37;79.67;100823.63;5078425;28;46385;-80
2022/08/18 00:59:46;;;;;;;;;21.33;21.33;;;;;21.37;80.15;100821.72;5078731;28;45321;-80
2022/08/18 01:02:25;;;;;;;;;21.33;20.00;;;;;21.36;80.21;100820.09;5078698;28;45374;-80
2022/08/18 01:04:58;;;;;;;;;18.67;17.33;;;;;21.35;80.04;100828.44;5078610;28;45417;-80
2022/08/18 01:07:33;;;;;;;;;18.00;17.33;;;;;21.31;79.49;100834.34;5078434;28;46387;-80
2022/08/18 01:09:58;;;;;;;;;18.33;17.00;;;;;21.31;80.01;100834.34;5078752;28;45539;-80
2022/08/18 01:12:26;;;;;;;;;16.00;15.33;;;;;21.30;79.87;100829.19;5078407;28;45283;-80
2022/08/18 01:14:53;;;;;;;;;21.00;20.00;;;;;21.31;79.18;100841.66;5078516;28;45317;-80
2022/08/18 01:23:10;;;;;;;;;19.67;18.33;;;;;21.21;79.61;100828.75;5078220;28;45295;-80
2022/08/18 01:28:22;;;;;;;;;16.67;15.33;;;;;21.17;79.66;100824.91;5081541;28;45379;-80
2022/08/18 01:30:54;;;;;;;;;18.67;17.33;;;;;21.19;79.87;100830.91;5081329;28;45692;-80
2022/08/18 01:33:20;;;;;;;;;17.33;17.33;;;;;21.06;80.41;100808.53;5081851;28;45330;-80
2022/08/18 01:35:48;;;;;;;;;19.00;19.00;;;;;21.14;80.55;100823.53;5081663;28;45569;-80
2022/08/18 01:38:19;;;;;;;;;19.00;19.00;;;;;21.16;81.19;100815.97;5081569;28;46356;-80
2022/08/18 01:40:45;;;;;;;;;19.00;18.67;;;;;21.11;81.01;100813.22;5081510;28;45381;-80
2022/08/18 01:43:13;;;;;;;;;20.33;20.33;;;;;21.13;81.37;100812.97;5081664;28;45358;-80
2022/08/18 01:45:40;;;;;;;;;17.33;17.33;;;;;21.11;81.36;100810.50;5081187;28;45552;-80
2022/08/18 01:48:05;;;;;;;;;22.33;22.00;;;;;21.07;81.63;100809.34;5081144;28;45466;-80
2022/08/18 01:50:35;;;;;;;;;22.00;21.33;;;;;21.14;81.79;100823.53;5081316;28;45213;-80
2022/08/18 01:53:04;;;;;;;;;17.00;17.00;;;;;21.44;80.74;100827.00;5081652;28;45274;-80
2022/08/18 01:55:37;;;;;;;;;21.00;21.00;;;;;21.14;80.50;100834.34;5081114;28;45372;-80
2022/08/18 01:58:04;;;;;;;;;20.00;19.00;;;;;21.36;81.08;100832.78;5081373;28;45482;-80
2022/08/18 02:00:31;;;;;;;;;20.00;20.00;;;;;21.19;80.38;100830.91;5081138;28;45384;-80
2022/08/18 02:02:57;;;;;;;;;19.33;18.67;;;;;21.13;80.56;100829.19;5081361;28;45353;-80
2022/08/18 02:05:31;;;;;;;;;19.33;19.33;;;;;21.09;81.11;100820.72;5081091;28;45389;-80
2022/08/18 02:07:56;;;;;;;;;21.67;21.00;;;;;21.12;80.81;100831.06;5080908;27;45520;-80
2022/08/18 02:10:22;;;;;;;;;23.00;21.67;;;;;21.11;80.60;100829.41;5080875;28;45276;-80
2022/08/18 02:12:47;;;;;;;;;17.67;16.67;;;;;21.09;80.67;100825.31;5080926;28;45453;-80
2022/08/18 02:15:13;;;;;;;;;20.00;19.33;;;;;21.05;81.11;100820.41;5080654;28;45461;-79
2022/08/18 02:17:43;;;;;;;;;22.00;20.00;;;;;21.07;80.92;100828.25;5092349;27;46595;-80
2022/08/18 02:20:17;;;;;;;;;20.00;20.00;;;;;21.03;81.26;100827.09;5080937;28;45305;-80
2022/08/18 02:22:43;;;;;;;;;19.67;19.67;;;;;21.02;81.18;100826.28;5080659;28;45393;-80
2022/08/18 02:25:10;;;;;;;;;14.00;12.00;;;;;21.01;80.69;100835.44;5080690;28;45389;-80
2022/08/18 02:27:35;;;;;;;;;21.67;21.00;;;;;21.00;80.88;100831.09;5080581;28;48101;-80
2022/08/18 02:30:05;;;;;;;;;21.33;21.33;;;;;21.04;81.18;100839.56;5080698;28;45266;-80
2022/08/18 02:32:31;;;;;;;;;18.67;18.67;;;;;20.96;81.09;100829.97;5080763;28;45320;-80
2022/08/18 02:34:56;;;;;;;;;18.00;18.00;;;;;20.95;81.12;100822.91;5080348;27;45378;-80
2022/08/18 02:37:22;;;;;;;;;21.67;19.33;;;;;20.93;80.82;100831.28;5080556;28;45379;-80
2022/08/18 02:39:48;;;;;;;;;21.67;21.67;;;;;20.90;80.63;100830.94;5080314;28;45491;-79
2022/08/18 02:42:14;;;;;;;;;21.00;19.00;;;;;20.87;81.11;100828.69;5080974;28;45382;-80
2022/08/18 02:44:39;;;;;;;;;19.00;19.00;;;;;20.86;80.69;100835.94;5080172;28;45336;-80
2022/08/18 02:47:05;;;;;;;;;18.00;16.00;;;;;20.80;81.22;100824.22;5080597;28;46687;-79
2022/08/18 02:49:30;;;;;;;;;17.33;17.33;;;;;20.77;81.03;100823.91;5080485;28;45291;-80
2022/08/18 02:51:55;;;;;;;;;16.00;15.00;;;;;20.78;80.78;100830.94;5080727;28;45268;-80
2022/08/18 02:54:23;;;;;;;;;14.00;13.00;;;;;20.79;80.68;100835.28;5080277;28;45380;-80
2022/08/18 02:56:50;;;;;;;;;17.67;17.33;;;;;20.74;80.66;100835.19;5080313;28;45402;-80
2022/08/18 02:59:23;;;;;;;;;16.33;14.67;;;;;20.81;80.63;100830.47;5080276;28;45390;-80
2022/08/18 03:01:51;;;;;;;;;18.67;16.00;;;;;20.71;80.37;100832.97;5080152;28;45397;-80
2022/08/18 03:04:20;;;;;;;;;12.33;12.00;;;;;20.68;80.58;100831.56;5080438;28;45410;-80
2022/08/18 03:06:45;;;;;;;;;13.67;13.67;;;;;20.66;80.88;100837.22;5080016;28;46259;-80
2022/08/18 03:09:13;;;;;;;;;14.67;14.00;;;;;20.67;80.51;100840.72;5080351;28;45191;-80
2022/08/18 03:11:39;;;;;;;;;13.67;13.67;;;;;20.57;80.61;100835.94;5080479;28;45251;-80
2022/08/18 03:14:05;;;;;;;;;14.67;14.00;;;;;20.55;80.67;100833.50;5079762;28;45472;-81
2022/08/18 03:16:31;;;;;;;;;14.67;14.00;;;;;20.58;80.60;100831.34;5087921;27;46085;-80
2022/08/18 03:18:58;;;;;;;;;19.00;16.67;;;;;20.62;80.96;100827.13;5083689;27;45401;-80
2022/08/18 03:21:26;;;;;;;;;20.33;19.33;;;;;20.57;80.70;100817.06;5080186;28;45292;-80
2022/08/18 03:23:53;;;;;;;;;18.00;17.67;;;;;20.58;80.54;100823.25;5079615;28;45695;-80
2022/08/18 03:26:21;;;;;;;;;19.00;19.00;;;;;20.56;81.51;100820.78;5079928;27;45481;-80
2022/08/18 03:28:48;;;;;;;;;16.33;16.00;;;;;20.55;81.06;100817.28;5079709;28;45359;-80
2022/08/18 03:31:16;;;;;;;;;18.00;18.00;;;;;20.54;81.36;100823.75;5079452;28;45448;-80
2022/08/18 03:33:42;;;;;;;;;20.00;18.33;;;;;20.55;81.19;100820.00;5079660;27;45341;-80
2022/08/18 03:36:11;;;;;;;;;20.33;18.33;;;;;20.52;81.53;100814.22;5079706;28;45663;-80
2022/08/18 03:38:38;;;;;;;;;19.00;19.00;;;;;20.56;81.66;100818.91;5079714;28;45341;-80
2022/08/18 03:41:06;;;;;;;;;20.00;19.00;;;;;20.55;81.73;100817.28;5079672;28;45347;-80
2022/08/18 03:43:31;;;;;;;;;18.67;18.33;;;;;20.56;81.38;100812.69;5079495;28;45298;-80
2022/08/18 03:46:04;;;;;;;;;21.67;19.33;;;;;20.54;81.50;100815.66;5079393;28;45307;-80
2022/08/18 03:48:30;;;;;;;;;21.00;20.67;;;;;20.55;80.99;100814.59;5078913;27;45434;-80
2022/08/18 03:51:02;;;;;;;;;19.33;19.33;;;;;20.57;81.26;100817.06;5079717;28;45389;-80
2022/08/18 03:53:27;;;;;;;;;18.33;18.00;;;;;20.55;81.46;100809.19;5065148;28;45354;-80
2022/08/18 03:55:52;;;;;;;;;21.00;21.00;;;;;20.52;81.19;100800.75;5079282;28;45550;-80
2022/08/18 03:58:18;;;;;;;;;24.00;22.00;;;;;20.52;80.90;100808.84;5079425;28;45382;-80
2022/08/18 04:00:43;;;;;;;;;23.00;22.00;;;;;20.52;81.36;100803.44;5079422;28;45335;-80
2022/08/18 04:03:09;;;;;;;;;24.00;24.00;;;;;20.52;81.54;100812.38;5079485;28;45496;-80
2022/08/18 04:05:38;;;;;;;;;22.67;22.67;;;;;20.53;81.20;100816.69;5079055;28;45799;-80
2022/08/18 04:08:05;;;;;;;;;24.67;23.67;;;;;20.50;81.38;100817.16;5085520;27;46115;-80
2022/08/18 04:10:31;;;;;;;;;27.33;24.33;;;;;20.45;81.64;100798.19;5079283;28;45803;-80
2022/08/18 04:12:57;;;;;;;;;28.00;26.67;;;;;20.50;81.05;100808.28;5078995;28;45513;-80
2022/08/18 04:15:22;;;;;;;;;23.67;23.67;;;;;20.40;81.59;100804.31;5078715;28;45484;-80
2022/08/18 04:17:48;;;;;;;;;26.00;24.67;;;;;20.39;80.96;100797.28;5090717;27;45377;-80
2022/08/18 04:20:13;;;;;;;;;23.33;23.33;;;;;20.36;81.44;100799.63;5079546;28;45438;-80
2022/08/18 04:22:39;;;;;;;;;24.00;23.00;;;;;20.41;81.49;100824.81;5078747;28;45398;-80
2022/08/18 04:25:08;;;;;;;;;21.00;21.00;;;;;20.36;81.30;100813.94;5079197;28;45377;-80
2022/08/18 04:27:34;;;;;;;;;23.67;23.00;;;;;20.38;81.71;100822.59;5079080;28;45216;-80
2022/08/18 04:29:59;;;;;;;;;24.00;24.00;;;;;20.35;81.47;100827.69;5079149;28;45321;-80
2022/08/18 04:32:24;;;;;;;;;22.67;20.67;;;;;20.34;81.45;100834.94;5079005;28;45265;-80
2022/08/18 04:34:50;;;;;;;;;23.00;21.00;;;;;20.30;81.61;100836.47;5078689;27;46332;-80
2022/08/18 04:37:16;;;;;;;;;22.33;22.00;;;;;20.31;81.69;100838.09;5079272;28;45253;-80
2022/08/18 04:39:42;;;;;;;;;24.67;23.33;;;;;20.28;81.57;100844.81;5078825;28;45360;-80
2022/08/18 04:42:07;;;;;;;;;27.00;25.00;;;;;20.30;81.65;100848.06;5079137;27;45650;-80
2022/08/18 04:44:36;;;;;;;;;22.00;21.67;;;;;20.29;81.32;100849.13;5078621;28;45423;-81
2022/08/18 04:47:03;;;;;;;;;23.67;23.67;;;;;20.23;81.62;100842.00;5078698;28;45246;-80
2022/08/18 04:49:30;;;;;;;;;23.67;23.67;;;;;20.29;81.80;100853.72;5078785;28;45310;-81
2022/08/18 04:54:42;;;;;;;;;23.33;21.00;;;;;20.24;81.80;100845.53;5078383;28;45805;-80
2022/08/18 04:57:11;;;;;;;;;27.00;26.00;;;;;20.25;82.28;100839.88;5078473;28;45320;-79
2022/08/18 04:59:39;;;;;;;;;29.33;28.00;;;;;20.22;82.41;100834.97;5080213;28;45284;-79
2022/08/18 05:02:07;;;;;;;;;25.33;24.67;;;;;20.15;82.20;100835.09;5082046;28;45373;-80
2022/08/18 05:04:33;;;;;;;;;28.00;26.67;;;;;20.21;82.35;100846.81;5074818;28;46015;-79
2022/08/18 05:07:00;;;;;;;;;22.33;22.00;;;;;20.26;82.10;100849.59;5081975;28;45533;-80
2022/08/18 05:09:25;;;;;;;;;22.33;22.33;;;;;20.23;82.07;100846.59;5082279;28;45389;-80
2022/08/18 05:11:50;;;;;;;;;30.00;28.00;;;;;20.21;82.16;100846.81;5081859;28;45495;-80
2022/08/18 05:14:16;;;;;;;;;26.00;26.00;;;;;20.29;81.97;100859.09;5080818;28;45333;-80
2022/08/18 05:16:42;;;;;;;;;29.00;25.33;;;;;20.28;81.66;100843.97;5085262;27;45677;-79
2022/08/18 05:19:13;;;;;;;;;22.67;21.33;;;;;20.36;81.46;100854.41;5081920;28;45677;-81
2022/08/18 05:21:40;;;;;;;;;25.33;25.33;;;;;20.34;81.76;100843.03;5073005;28;45402;-80
2022/08/18 05:24:06;;;;;;;;;24.67;24.67;;;;;20.35;81.75;100846.56;5069205;27;46281;-81
2022/08/18 05:26:32;;;;;;;;;33.67;29.00;;;;;20.35;81.84;100846.56;5068583;28;45463;-81
2022/08/18 05:28:57;;;;;;;;;26.67;26.67;;;;;20.29;81.73;100851.00;5082484;28;45164;-79
2022/08/18 05:31:26;;;;;;;;;24.33;24.33;;;;;20.31;81.82;100857.84;5082827;28;45165;-80
2022/08/18 05:33:54;;;;;;;;;31.00;27.33;;;;;20.29;81.56;100845.59;5082820;28;45632;-80
2022/08/18 05:36:42;;;;;;;;;28.00;27.33;;;;;20.30;81.85;100856.16;5083460;28;45500;-81
2022/08/18 05:39:16;;;;;;;;;33.00;27.33;;;;;20.31;82.09;100865.09;5082674;27;45161;-80
2022/08/18 05:41:53;;;;;;;;;33.00;30.67;;;;;20.28;82.09;100855.59;5079805;28;45598;-80
2022/08/18 05:44:27;;;;;;;;;34.67;31.00;;;;;20.29;82.50;100867.19;5081485;27;46235;-81
2022/08/18 05:46:57;;;;;;;;;29.67;27.33;;;;;20.30;82.52;100875.06;5081568;28;45330;-81
2022/08/18 05:49:25;;;;;;;;;29.67;28.67;;;;;20.34;82.57;100874.59;5081823;28;45333;-80
2022/08/18 05:51:59;;;;;;;;;27.67;26.67;;;;;20.40;82.74;100873.66;5081671;27;46084;-80
2022/08/18 05:57:18;;;;;;;;;42.33;34.00;;;;;20.39;82.90;100880.09;5081643;28;45260;-80
2022/08/18 05:59:45;;;;;;;;;41.00;33.33;;;;;20.42;83.07;100885.84;5081259;28;45323;-80
2022/08/18 06:02:24;;;;;;;;;33.00;29.33;;;;;20.47;82.97;100889.72;5081280;28;45312;-81
2022/08/18 06:04:57;;;;;;;;;28.00;27.67;;;;;20.45;82.69;100884.56;5081298;28;45325;-77
2022/08/18 06:07:40;;;;;;;;;28.67;26.67;;;;;20.51;82.98;100896.28;5076941;28;45236;-82
2022/08/18 06:10:07;;;;;;;;;25.67;25.67;;;;;20.54;82.76;100893.13;5083444;28;45315;-85
2022/08/18 06:12:33;;;;;;;;;27.00;26.33;;;;;20.58;82.58;100901.53;5080915;28;46130;-84
2022/08/18 06:15:51;;;;;;;;;28.67;25.67;;;;;20.55;82.94;100894.75;5079217;28;47430;-83
2022/08/18 06:18:35;;;;;;;;;29.33;28.00;;;;;20.66;83.08;100902.03;5067611;27;45491;-81
2022/08/18 06:21:15;;;;;;;;;35.00;31.33;;;;;20.69;82.79;100901.50;5081455;27;45530;-82
2022/08/18 06:23:40;;;;;;;;;33.00;31.00;;;;;20.76;82.66;100889.75;5075995;28;45247;-83
2022/08/18 06:26:21;;;;;;;;;32.33;28.67;;;;;20.83;82.40;100903.94;5070733;28;46281;-80
2022/08/18 06:29:12;;;;;;;;;30.67;28.33;;;;;20.84;82.64;100899.38;5081313;28;45412;-83
2022/08/18 06:31:51;;;;;;;;;34.33;31.00;;;;;20.72;81.95;100897.53;5080179;28;45287;-84
2022/08/18 06:34:47;;;;;;;;;39.67;34.00;;;;;20.83;81.85;100906.66;5080990;28;45414;-81
2022/08/18 06:37:22;;;;;;;;;29.00;28.33;;;;;20.88;82.37;100905.94;5080710;27;46976;-79
2022/08/18 06:39:50;;;;;;;;;37.00;31.67;;;;;21.04;82.73;100913.31;5075257;28;45493;-83
2022/08/18 06:42:20;;;;;;;;;41.33;34.33;;;;;21.10;82.03;100910.72;5080980;27;45485;-79
2022/08/18 06:44:50;;;;;;;;;36.00;32.33;;;;;21.06;82.24;100903.09;5075349;28;45620;-79
2022/08/18 06:47:18;;;;;;;;;36.67;31.33;;;;;21.12;81.81;100905.88;5067243;28;45322;-79
2022/08/18 06:49:56;;;;;;;;;34.00;30.33;;;;;21.16;81.76;100918.66;5078677;28;45217;-79
2022/08/18 06:52:27;;;;;;;;;37.67;32.67;;;;;21.19;82.02;100910.06;5080664;28;45611;-79
2022/08/18 06:54:55;;;;;;;;;39.00;32.67;;;;;21.18;81.64;100913.84;5074368;28;45470;-79
2022/08/18 06:57:31;;;;;;;;;42.33;34.00;;;;;21.18;81.73;100910.31;5061558;28;45352;-80
2022/08/18 06:59:59;;;;;;;;;42.33;36.00;;;;;21.13;82.03;100904.84;5068722;28;45390;-80
2022/08/18 07:02:42;;;;;;;;;43.00;34.33;;;;;21.18;82.09;100908.44;5079873;28;45306;-80
2022/08/18 07:05:13;;;;;;;;;43.50;37.75;;;;;21.29;82.04;100925.69;5074156;27;45408;-79
2022/08/18 07:07:40;;;;;;;;;48.67;40.33;;;;;21.31;82.03;100923.53;5074902;28;45413;-79
2022/08/18 07:10:28;;;;;;;;;41.67;34.67;;;;;21.32;81.87;100921.66;5080310;28;45311;-79
2022/08/18 07:13:17;;;;;;;;;46.00;38.00;;;;;21.36;81.92;100916.56;5070465;28;45462;-80
2022/08/18 07:15:44;;;;;;;;;42.33;35.00;;;;;21.30;81.65;100911.09;5080819;27;45348;-80
2022/08/18 07:18:11;;;;;;;;;44.67;37.00;;;;;21.38;82.03;100920.69;5089217;27;45345;-79
2022/08/18 07:20:48;;;;;;;;;43.75;36.75;;;;;21.41;81.72;100931.03;5080100;28;45264;-80
2022/08/18 07:23:28;;;;;;;;;42.67;36.33;;;;;21.49;82.03;100920.88;5074967;28;45377;-79
2022/08/18 07:26:14;;;;;;;;;42.00;34.00;;;;;21.62;81.42;100933.25;5067632;28;45311;-79
2022/08/18 07:28:43;;;;;;;;;44.50;38.00;;;;;21.64;81.03;100920.31;5071756;28;45450;-78
2022/08/18 07:31:36;;;;;;;;;45.50;38.50;;;;;21.73;81.09;100936.97;5082204;28;45350;-78
2022/08/18 07:34:11;;;;;;;;;47.00;39.25;;;;;21.75;81.14;100914.03;5077002;28;45379;-79
2022/08/18 07:37:14;;;;;;;;;46.75;38.50;;;;;21.92;81.18;100926.75;5083202;28;45349;-78
2022/08/18 07:39:44;;;;;;;;;50.25;41.50;;;;;21.97;80.94;100917.91;5068001;28;45455;-79
2022/08/18 07:42:17;;;;;;;;;43.33;37.00;;;;;22.02;80.51;100910.66;5065240;28;45409;-79
2022/08/18 07:44:52;;;;;;;;;53.75;44.25;;;;;22.12;81.07;100923.53;5074424;28;45381;-79
2022/08/18 07:47:21;;;;;;;;;42.00;35.67;;;;;22.18;80.09;100930.66;5079796;28;45342;-79
2022/08/18 07:49:47;;;;;;;;;47.33;39.00;;;;;22.22;80.77;100922.88;5079589;27;45358;-80
2022/08/18 07:52:29;;;;;;;;;47.33;38.00;;;;;22.32;80.88;100928.44;5079488;27;45298;-81
2022/08/18 07:55:16;;;;;;;;;49.25;39.75;;;;;22.43;80.64;100931.28;5078497;28;45358;-80
2022/08/18 07:57:50;;;;;;;;;50.25;41.50;;;;;22.55;80.20;100934.69;5080431;28;45319;-79
2022/08/18 08:00:22;;;;;;;;;45.67;38.67;;;;;22.54;80.47;100907.88;5068887;28;45338;-79
2022/08/18 08:02:48;;;;;;;;;47.25;39.75;;;;;22.59;80.18;100926.13;5079262;28;45330;-79
2022/08/18 08:05:13;;;;;;;;;46.67;39.67;;;;;22.56;80.16;100922.78;5080828;28;45319;-79
2022/08/18 08:07:54;;;;;;;;;46.50;38.75;;;;;22.57;79.92;100920.91;5090284;27;46135;-79
2022/08/18 08:10:34;;;;;;;;;46.67;39.33;;;;;22.64;79.96;100915.31;5079280;28;45632;-79
2022/08/18 08:13:08;;;;;;;;;43.67;37.00;;;;;22.51;79.39;100881.28;5078658;28;45588;-79
2022/08/18 08:15:42;;;;;;;;;47.50;39.25;;;;;22.67;79.37;100891.28;5078980;28;45584;-79
2022/08/18 08:18:21;;;;;;;;;45.67;39.00;;;;;22.83;80.15;100916.66;5075525;28;45386;-79
2022/08/18 08:21:02;;;;;;;;;48.33;40.33;;;;;22.89;80.23;100922.13;5078922;28;45443;-79
2022/08/18 08:23:33;;;;;;;;;44.00;35.67;;;;;22.97;79.86;100915.44;5079366;28;45484;-80
2022/08/18 08:26:20;;;;;;;;;48.25;39.75;;;;;23.04;79.75;100916.06;5079977;28;45351;-79
2022/08/18 08:29:05;;;;;;;;;47.67;40.33;;;;;23.04;78.97;100900.63;5079812;28;45485;-79
2022/08/18 08:31:56;;;;;;;;;47.00;38.67;;;;;23.09;79.15;100899.84;5079114;28;46653;-80
2022/08/18 08:34:45;;;;;;;;;46.00;38.67;;;;;23.13;79.15;100903.69;5082151;27;45227;-79
2022/08/18 08:37:26;;;;;;;;;42.00;36.00;;;;;23.07;78.89;100899.28;5083044;28;45401;-79
2022/08/18 08:40:01;;;;;;;;;48.00;40.00;;;;;23.16;79.61;100907.78;5082553;28;45410;-79
2022/08/18 08:42:44;;;;;;;;;46.67;39.33;;;;;23.27;79.53;100914.94;5082988;28;46419;-79
2022/08/18 08:45:32;;;;;;;;;51.50;42.75;;;;;23.28;79.77;100897.59;5068714;28;45363;-79
2022/08/18 08:48:19;;;;;;;;;53.00;43.00;;;;;23.40;78.83;100911.03;5082728;28;45338;-79
2022/08/18 08:51:02;;;;;;;;;55.50;45.75;;;;;23.57;78.56;100924.50;5082541;28;45402;-79
2022/08/18 08:53:46;;;;;;;;;53.25;44.50;;;;;23.61;78.11;100915.84;5083153;28;45399;-79
2022/08/18 08:56:15;;;;;;;;;52.25;42.25;;;;;23.75;78.06;100929.75;5082390;28;45405;-79
2022/08/18 08:59:01;;;;;;;;;52.75;43.75;;;;;23.83;78.08;100921.97;5083292;28;45227;-79
2022/08/18 09:01:36;;;;;;;;;50.75;42.75;;;;;23.98;78.14;100930.50;5083228;28;45333;-78
2022/08/18 09:04:15;;;;;;;;;55.50;45.75;;;;;24.01;77.02;100932.69;5092131;27;46214;-79
2022/08/18 09:07:22;;;;;;;;;55.00;45.00;;;;;24.10;76.68;100931.13;5082333;28;45369;-79
2022/08/18 09:10:27;;;;;;;;;55.25;44.50;;;;;24.17;76.20;100931.75;5081685;27;45256;-79
2022/08/18 09:13:30;;;;;;;;;50.33;41.67;;;;;24.24;76.50;100926.06;5081974;27;45297;-78
2022/08/18 09:16:29;;;;;;;;;55.00;45.00;;;;;24.28;76.31;100934.53;5084364;27;45574;-79
2022/08/18 09:19:11;;;;;;;;;48.00;40.00;;;;;24.29;76.07;100917.13;5082217;28;45270;-79
2022/08/18 09:21:59;;;;;;;;;54.25;44.25;;;;;24.39;75.98;100921.81;5082771;28;45512;-78
2022/08/18 09:24:40;;;;;;;;;50.75;42.25;;;;;24.40;75.50;100928.88;5082069;28;45290;-78
2022/08/18 09:27:33;;;;;;;;;52.25;42.50;;;;;24.58;75.64;100936.56;5082195;28;46361;-78
2022/08/18 09:30:00;;;;;;;;;50.50;41.00;;;;;24.68;75.28;100940.41;5081194;27;45428;-79
2022/08/18 09:32:26;;;;;;;;;48.33;39.33;;;;;24.72;75.75;100941.50;5082244;28;45402;-78
2022/08/18 09:35:25;;;;;;;;;48.67;40.00;;;;;24.80;75.16;100940.19;5081686;28;45368;-79
2022/08/18 09:44:10;;;;;;;;;44.00;37.67;;;;;25.09;74.79;100934.34;5081482;28;45361;-77
2022/08/18 09:46:41;;;;;;;;;45.00;37.33;;;;;25.18;73.79;100943.63;5080982;28;45170;-77
2022/08/18 09:49:21;;;;;;;;;41.00;35.67;;;;;25.32;72.82;100934.94;5081605;28;45227;-78
2022/08/18 09:51:52;;;;;;;;;42.67;36.67;;;;;25.35;71.22;100920.81;5077713;28;45345;-78
2022/08/18 09:54:29;;;;;;;;;45.00;37.67;;;;;25.41;71.40;100911.53;5067357;28;45165;-77
2022/08/18 09:57:16;;;;;;;;;45.33;38.00;;;;;25.58;71.57;100929.50;5081804;28;45613;-77
2022/08/18 09:59:44;;;;;;;;;35.50;32.00;;;;;25.60;70.16;100930.09;5081383;28;45490;-77
2022/08/18 10:02:31;;;;;;;;;44.33;37.00;;;;;25.66;69.72;100925.47;5081381;28;45326;-76
2022/08/18 10:05:18;;;;;;;;;40.00;35.00;;;;;25.79;69.72;100916.75;5049555;28;45429;-77
2022/08/18 10:07:52;;;;;;;;;41.33;35.00;;;;;25.89;69.16;100907.75;5081085;28;45442;-77
2022/08/18 10:10:50;;;;;;;;;44.67;37.00;;;;;26.04;67.99;100908.84;5081257;28;45297;-77
2022/08/18 10:13:31;;;;;;;;;38.00;33.33;;;;;26.20;68.57;100905.00;5081255;28;45393;-78
2022/08/18 10:16:15;;;;;;;;;38.33;31.00;;;;;26.33;68.20;100895.44;5083648;27;45166;-77
2022/08/18 10:18:49;;;;;;;;;33.00;30.33;;;;;26.44;66.88;100888.06;5081397;28;45265;-78
2022/08/18 10:21:26;;;;;;;;;40.00;34.33;;;;;26.57;67.37;100885.78;5080806;28;46760;-77
2022/08/18 10:23:51;;;;;;;;;37.33;33.00;;;;;26.77;66.97;100886.78;5081103;28;45281;-77
2022/08/18 10:26:29;;;;;;;;;36.67;31.67;;;;;26.93;66.91;100884.78;5081004;28;45286;-77
2022/08/18 10:28:58;;;;;;;;;32.33;28.67;;;;;27.07;65.24;100872.19;5079634;28;45606;-77
2022/08/18 10:31:25;;;;;;;;;32.67;30.00;;;;;27.29;63.74;100875.59;5080688;27;45981;-78
2022/08/18 10:33:59;;;;;;;;;33.33;29.67;;;;;27.43;63.63;100865.66;5075271;28;45334;-77
2022/08/18 10:36:46;;;;;;;;;28.67;26.67;;;;;28.01;62.25;100857.75;5066865;28;45298;-77
2022/08/18 10:39:17;;;;;;;;;26.33;26.33;;;;;28.22;61.81;100857.50;5080665;27;45492;-77
2022/08/18 10:41:55;;;;;;;;;22.67;22.00;;;;;28.06;60.69;100859.59;5080599;28;45445;-80
2022/08/18 10:44:22;;;;;;;;;27.67;27.33;;;;;28.26;60.23;100847.63;5079117;28;45350;-78
2022/08/18 10:46:49;;;;;;;;;28.33;27.00;;;;;28.37;60.44;100837.41;5081052;28;45414;-77
2022/08/18 10:49:24;;;;;;;;;28.33;27.00;;;;;28.57;60.17;100847.25;5080611;28;45227;-79
2022/08/18 10:52:14;;;;;;;;;32.33;29.00;;;;;28.78;59.79;100848.88;5080846;27;45525;-78
2022/08/18 10:54:52;;;;;;;;;27.33;26.33;;;;;29.01;58.57;100866.34;5080631;28;45420;-78
2022/08/18 10:57:23;;;;;;;;;26.00;24.00;;;;;29.16;56.63;100867.22;5080582;28;45224;-78
2022/08/18 11:00:17;;;;;;;;;22.67;22.67;;;;;29.30;55.26;100862.59;5083547;27;45450;-79
2022/08/18 11:03:21;;;;;;;;;19.33;19.33;;;;;29.46;56.14;100862.34;5078927;28;47248;-78
2022/08/18 11:05:46;;;;;;;;;24.67;23.33;;;;;29.60;54.87;100846.00;5001216;28;45465;-80
2022/08/18 11:08:16;;;;;;;;;21.67;20.00;;;;;29.83;54.27;100857.88;5067198;28;45365;-78
2022/08/18 11:10:47;;;;;;;;;19.67;19.67;;;;;30.01;53.55;100866.31;5080386;28;45368;-79
2022/08/18 11:13:34;;;;;;;;;22.00;21.33;;;;;30.21;53.20;100862.38;5080267;28;46007;-79
2022/08/18 11:16:21;;;;;;;;;20.00;19.67;;;;;30.38;52.43;100847.25;5082689;27;45399;-78
2022/08/18 11:18:51;;;;;;;;;22.00;22.00;;;;;30.49;50.86;100847.81;5080610;28;45316;-77
2022/08/18 11:21:35;;;;;;;;;22.67;21.67;;;;;30.62;49.76;100855.19;5066088;28;45507;-76
2022/08/18 11:24:04;;;;;;;;;20.00;20.00;;;;;30.74;49.75;100862.09;5080126;27;45250;-77
2022/08/18 11:26:31;;;;;;;;;16.00;15.33;;;;;30.79;48.71;100853.75;5080028;28;45347;-78
2022/08/18 11:28:56;;;;;;;;;21.00;20.33;;;;;30.96;50.13;100861.31;5080452;28;45373;-78
2022/08/18 11:31:23;;;;;;;;;23.67;22.33;;;;;31.00;47.10;100864.25;5079922;27;45233;-77
2022/08/18 11:33:49;;;;;;;;;17.33;17.33;;;;;31.01;48.37;100862.31;5080270;28;46211;-77
2022/08/18 11:36:15;;;;;;;;;24.33;22.67;;;;;31.09;49.38;100859.63;5081553;28;45254;-77
2022/08/18 11:38:53;;;;;;;;;15.67;15.67;;;;;31.18;45.86;100854.22;5080027;28;45225;-78
2022/08/18 11:41:25;;;;;;;;;16.00;15.67;;;;;31.24;46.98;100861.19;5069795;28;45398;-77
2022/08/18 11:43:58;;;;;;;;;16.00;15.67;;;;;31.26;44.40;100860.88;5076596;27;45599;-75
2022/08/18 11:46:30;;;;;;;;;16.00;15.33;;;;;31.37;46.56;100859.50;5077139;28;45604;-75
2022/08/18 11:48:55;;;;;;;;;14.67;13.67;;;;;31.53;47.27;100869.28;5079819;28;45353;-75
2022/08/18 11:51:27;;;;;;;;;16.50;15.50;;;;;31.67;46.93;100858.22;5078263;27;45741;-75
2022/08/18 11:53:59;;;;;;;;;18.33;17.00;;;;;31.94;46.89;100861.91;5079556;28;45740;-75